Time;durP1;ratioP1;P1;durP2;ratioP2;P2;SDS_P1;SDS_P2;PMS_P1;PMS_P2;Temp;Humidity;BMP_temperature;BMP_pressure;BME280_temperature;BME280_humidity;BME280_pressure;Samples;Min_cycle;Max_cycle;Signal;HPM_P1;HPM_P2
2023/12/17 00:01:03;;;;;;;42.83;24.45;;;-0.40;99.90;;;;;;5088386;28;20167;-79
2023/12/17 00:03:53;;;;;;;43.90;23.33;;;-0.40;99.90;;;;;;5087389;28;20045;-80
2023/12/17 00:06:41;;;;;;;41.30;22.25;;;-0.40;99.90;;;;;;5082511;28;20079;-79
2023/12/17 00:09:29;;;;;;;37.35;20.92;;;-0.40;99.90;;;;;;5090892;28;20067;-79
2023/12/17 00:12:16;;;;;;;37.83;20.52;;;-0.50;99.90;;;;;;5090538;28;20044;-79
2023/12/17 00:15:04;;;;;;;34.22;20.48;;;-0.50;99.90;;;;;;5082117;28;20089;-80
2023/12/17 00:17:51;;;;;;;40.90;22.65;;;-0.50;99.90;;;;;;5086143;28;20368;-79
2023/12/17 00:21:10;;;;;;;38.92;22.77;;;-0.50;99.90;;;;;;5078292;28;20166;-78
2023/12/17 00:23:57;;;;;;;38.28;21.55;;;-0.40;99.90;;;;;;5082702;28;20051;-78
2023/12/17 00:26:50;;;;;;;36.80;19.75;;;-0.40;99.90;;;;;;5083371;28;20574;-80
2023/12/17 00:29:37;;;;;;;;;;;-0.50;99.90;;;;;;5067267;28;20056;-79
2023/12/17 00:32:26;;;;;;;40.80;19.48;;;-0.50;99.90;;;;;;5085833;28;20247;-79
2023/12/17 00:35:14;;;;;;;36.72;20.08;;;-0.60;99.90;;;;;;5082697;28;20048;-79
2023/12/17 00:38:04;;;;;;;39.42;20.33;;;-0.60;99.90;;;;;;5081528;28;20071;-80
2023/12/17 00:40:51;;;;;;;44.35;24.90;;;-0.70;99.90;;;;;;5074483;28;20148;-79
2023/12/17 00:43:40;;;;;;;47.35;24.52;;;-0.60;99.90;;;;;;5084680;28;20506;-79
2023/12/17 00:46:32;;;;;;;49.17;24.25;;;-0.60;99.90;;;;;;5086494;28;20039;-81
2023/12/17 00:49:22;;;;;;;43.47;22.80;;;-0.80;99.90;;;;;;5082346;28;20033;-78
2023/12/17 00:52:09;;;;;;;43.03;22.77;;;-0.90;99.90;;;;;;5064055;28;20040;-79
2023/12/17 00:54:59;;;;;;;44.08;23.48;;;-0.90;99.90;;;;;;5084396;28;20044;-79
2023/12/17 00:57:46;;;;;;;40.30;21.63;;;-1.00;99.90;;;;;;5082577;28;20055;-79
2023/12/17 01:00:35;;;;;;;42.55;22.23;;;-1.10;99.90;;;;;;5086798;28;20091;-78
2023/12/17 01:03:35;;;;;;;36.70;21.88;;;-1.20;99.90;;;;;;5086513;28;20047;-79
2023/12/17 01:06:23;;;;;;;42.72;21.95;;;-1.10;99.90;;;;;;5085356;28;20046;-79
2023/12/17 01:09:10;;;;;;;44.50;21.33;;;-1.20;99.90;;;;;;5074392;28;20067;-80
2023/12/17 01:11:59;;;;;;;44.17;22.05;;;-1.20;99.90;;;;;;5084246;28;20047;-78
2023/12/17 01:14:46;;;;;;;43.33;22.40;;;-1.10;99.90;;;;;;5087202;28;20059;-78
2023/12/17 01:17:33;;;;;;;49.72;24.08;;;-1.00;99.90;;;;;;5083248;28;20052;-79
2023/12/17 01:20:21;;;;;;;40.83;23.27;;;-0.90;99.90;;;;;;5085223;28;20041;-80
2023/12/17 01:23:08;;;;;;;49.88;24.23;;;-0.90;99.90;;;;;;5082185;28;20063;-80
2023/12/17 01:25:55;;;;;;;41.38;22.50;;;-0.90;99.90;;;;;;5051928;28;20040;-78
2023/12/17 01:28:42;;;;;;;39.67;22.08;;;-0.90;99.90;;;;;;5085920;28;20036;-79
2023/12/17 01:31:30;;;;;;;41.30;23.27;;;-0.90;99.90;;;;;;5088002;28;20079;-81
2023/12/17 01:34:20;;;;;;;43.45;23.23;;;-0.90;99.90;;;;;;5085251;28;20116;-78
2023/12/17 01:37:10;;;;;;;45.70;23.60;;;-0.90;99.90;;;;;;5082964;28;20181;-79
2023/12/17 01:39:59;;;;;;;49.50;26.77;;;-0.90;99.90;;;;;;5070226;28;20465;-76
2023/12/17 01:42:52;;;;;;;52.95;24.65;;;-0.90;99.90;;;;;;5094856;28;20059;-80
2023/12/17 01:45:41;;;;;;;;;;;-0.90;99.90;;;;;;5077963;28;20452;-79
2023/12/17 01:48:29;;;;;;;44.72;24.33;;;-1.00;99.90;;;;;;5087929;28;20019;-77
2023/12/17 01:51:17;;;;;;;55.53;26.02;;;-1.10;99.90;;;;;;5087014;28;20041;-78
2023/12/17 01:54:04;;;;;;;48.33;24.65;;;-1.10;99.90;;;;;;5094127;28;20181;-78
2023/12/17 01:56:52;;;;;;;46.78;24.63;;;-1.10;99.90;;;;;;5090216;28;20364;-79
2023/12/17 01:59:41;;;;;;;49.28;25.63;;;-1.20;99.90;;;;;;5084225;28;20098;-79
2023/12/17 02:02:34;;;;;;;54.08;24.52;;;-1.30;99.90;;;;;;5083324;28;20539;-79
2023/12/17 02:05:21;;;;;;;46.20;24.67;;;-1.30;99.90;;;;;;5088193;28;20154;-80
2023/12/17 02:08:08;;;;;;;48.75;24.60;;;-1.20;99.90;;;;;;5093583;28;20371;-78
2023/12/17 02:10:58;;;;;;;42.35;23.30;;;-1.20;99.90;;;;;;5093173;28;20055;-79
2023/12/17 02:13:45;;;;;;;47.20;24.25;;;-1.30;99.90;;;;;;5087030;28;20063;-80
2023/12/17 02:16:32;;;;;;;50.90;25.83;;;-1.40;99.90;;;;;;5084893;28;20053;-80
2023/12/17 02:19:19;;;;;;;46.50;25.80;;;-1.50;99.90;;;;;;5083983;28;20116;-78
2023/12/17 02:22:07;;;;;;;51.08;27.20;;;-1.30;99.90;;;;;;5087630;28;20043;-79
2023/12/17 02:24:54;;;;;;;58.83;27.58;;;-1.20;99.90;;;;;;5089997;28;20392;-79
2023/12/17 02:27:44;;;;;;;47.13;26.52;;;-1.20;99.90;;;;;;5085108;28;20048;-77
2023/12/17 02:30:31;;;;;;;49.08;25.55;;;-1.30;99.90;;;;;;5091170;28;20048;-79
2023/12/17 02:33:18;;;;;;;56.10;29.55;;;-1.30;99.90;;;;;;5083059;28;20448;-79
2023/12/17 02:36:06;;;;;;;53.33;26.77;;;-1.30;99.90;;;;;;5089838;28;20471;-78
2023/12/17 02:38:53;;;;;;;48.28;26.77;;;-1.40;99.90;;;;;;5077786;28;20359;-78
2023/12/17 02:41:44;;;;;;;55.63;26.50;;;-1.40;99.90;;;;;;5093597;28;20468;-79
2023/12/17 02:44:31;;;;;;;49.50;25.02;;;-1.50;99.90;;;;;;5077372;28;20044;-80
2023/12/17 02:47:18;;;;;;;46.30;24.48;;;-1.40;99.90;;;;;;5084672;28;20047;-80
2023/12/17 02:50:09;;;;;;;51.38;25.05;;;-1.40;99.90;;;;;;5092094;28;20040;-81
2023/12/17 02:52:57;;;;;;;53.15;26.75;;;-1.40;99.90;;;;;;5075345;28;20061;-79
2023/12/17 02:55:44;;;;;;;53.40;24.92;;;-1.40;99.90;;;;;;5084274;28;20047;-81
2023/12/17 02:58:32;;;;;;;49.90;24.05;;;-1.50;99.90;;;;;;5083396;28;20037;-81
2023/12/17 03:01:19;;;;;;;40.20;22.88;;;-1.50;99.90;;;;;;5088752;28;20052;-80
2023/12/17 03:04:06;;;;;;;59.80;25.80;;;-1.50;99.90;;;;;;5088906;28;20032;-78
2023/12/17 03:06:53;;;;;;;47.28;26.02;;;-1.50;99.90;;;;;;5081336;28;20037;-80
2023/12/17 03:09:41;;;;;;;52.40;26.13;;;-1.40;99.90;;;;;;5069980;28;20041;-79
2023/12/17 03:12:28;;;;;;;47.22;24.95;;;-1.20;99.90;;;;;;5088607;28;20040;-76
2023/12/17 03:15:15;;;;;;;55.85;27.15;;;-1.20;99.90;;;;;;5091560;28;20044;-78
2023/12/17 03:18:03;;;;;;;52.42;26.55;;;-1.20;99.90;;;;;;5082330;28;20499;-78
2023/12/17 03:20:50;;;;;;;58.38;27.42;;;-1.20;99.90;;;;;;5087990;28;20075;-79
2023/12/17 03:23:40;;;;;;;47.83;25.20;;;-1.20;99.90;;;;;;5082253;28;20129;-78
2023/12/17 03:26:27;;;;;;;51.40;26.65;;;-1.30;99.90;;;;;;5080222;28;20453;-79
2023/12/17 03:29:14;;;;;;;48.65;26.25;;;-1.30;99.90;;;;;;5080748;28;20051;-79
2023/12/17 03:32:04;;;;;;;51.55;26.48;;;-1.40;99.90;;;;;;5091128;28;20044;-78
2023/12/17 03:34:51;;;;;;;56.55;25.13;;;-1.40;99.90;;;;;;5091387;28;20048;-80
2023/12/17 03:37:38;;;;;;;52.20;26.77;;;-1.40;99.90;;;;;;5091511;28;20050;-79
2023/12/17 03:40:26;;;;;;;49.55;27.02;;;-1.30;99.90;;;;;;5073444;28;20036;-79
2023/12/17 03:43:18;;;;;;;60.25;28.38;;;-1.30;99.90;;;;;;5090193;28;20041;-78
2023/12/17 03:46:05;;;;;;;50.22;26.17;;;-1.20;99.90;;;;;;5087975;28;20064;-79
2023/12/17 03:48:55;;;;;;;46.05;26.05;;;-1.20;99.90;;;;;;5089839;28;20040;-81
2023/12/17 03:51:42;;;;;;;54.28;25.05;;;-1.20;99.90;;;;;;5092827;28;20040;-79
2023/12/17 03:54:32;;;;;;;55.97;25.42;;;-1.20;99.90;;;;;;5092297;28;20056;-77
2023/12/17 03:57:19;;;;;;;51.00;26.42;;;-1.30;99.90;;;;;;5088114;28;20090;-79
2023/12/17 04:00:10;;;;;;;56.47;27.67;;;-1.20;99.90;;;;;;5084045;28;20379;-79
2023/12/17 04:02:57;;;;;;;60.97;26.90;;;-1.20;99.90;;;;;;5084267;28;20126;-79
2023/12/17 04:05:44;;;;;;;58.13;27.00;;;-1.20;99.90;;;;;;5085337;28;20043;-79
2023/12/17 04:08:32;;;;;;;54.10;26.65;;;-1.30;99.90;;;;;;5082572;28;20123;-79
2023/12/17 04:11:19;;;;;;;54.10;25.85;;;-1.40;99.90;;;;;;5085620;28;20138;-79
2023/12/17 04:14:06;;;;;;;53.25;25.65;;;-1.30;99.90;;;;;;5068024;28;20044;-78
2023/12/17 04:16:53;;;;;;;50.08;25.65;;;-1.30;99.90;;;;;;5086832;28;20040;-79
2023/12/17 04:19:41;;;;;;;59.88;25.65;;;-1.20;99.90;;;;;;5070530;28;20443;-79
2023/12/17 04:22:30;;;;;;;50.30;25.92;;;-1.10;99.90;;;;;;5081236;28;20048;-79
2023/12/17 04:25:19;;;;;;;49.53;27.15;;;-1.20;99.90;;;;;;5086987;28;20051;-79
2023/12/17 04:28:09;;;;;;;54.45;26.85;;;-1.00;99.90;;;;;;5085270;28;20098;-79
2023/12/17 04:30:56;;;;;;;49.08;25.55;;;-0.90;99.90;;;;;;5079043;28;20056;-78
2023/12/17 04:33:45;;;;;;;51.90;25.95;;;-0.90;99.90;;;;;;5085431;28;20517;-78
2023/12/17 04:36:32;;;;;;;56.28;25.35;;;-1.00;99.90;;;;;;5087660;28;20382;-78
2023/12/17 04:39:20;;;;;;;48.85;26.33;;;-1.10;99.90;;;;;;5090387;28;20048;-78
2023/12/17 04:42:07;;;;;;;52.20;25.08;;;-1.20;99.90;;;;;;5068695;28;20066;-79
2023/12/17 04:44:54;;;;;;;52.78;26.50;;;-1.00;99.90;;;;;;5084839;28;20040;-79
2023/12/17 04:47:44;;;;;;;55.10;28.08;;;-1.00;99.90;;;;;;5086575;28;20072;-80
2023/12/17 04:50:31;;;;;;;51.83;26.98;;;-0.90;99.90;;;;;;5083943;28;20040;-78
2023/12/17 04:53:18;;;;;;;52.63;25.65;;;-0.90;99.90;;;;;;5089387;28;20300;-78
2023/12/17 04:56:06;;;;;;;51.35;27.33;;;-0.90;99.90;;;;;;5072088;28;20044;-78
2023/12/17 04:58:56;;;;;;;58.88;28.00;;;-0.90;99.90;;;;;;5082219;28;20059;-79
2023/12/17 05:01:43;;;;;;;54.95;27.20;;;-0.80;99.90;;;;;;5080558;28;20127;-78
2023/12/17 05:04:32;;;;;;;54.20;27.52;;;-0.70;99.90;;;;;;5077719;28;20058;-79
2023/12/17 05:07:22;;;;;;;51.05;28.60;;;-0.60;99.90;;;;;;5090561;28;20039;-78
2023/12/17 05:10:09;;;;;;;49.17;26.38;;;-0.60;99.90;;;;;;5092926;28;20044;-78
2023/12/17 05:12:56;;;;;;;48.63;27.23;;;-0.50;99.90;;;;;;5083839;28;20036;-80
2023/12/17 05:15:44;;;;;;;49.72;27.27;;;-0.50;99.90;;;;;;5071267;28;20063;-79
2023/12/17 05:18:31;;;;;;;51.33;27.38;;;-0.40;99.90;;;;;;5091859;28;20043;-76
2023/12/17 05:21:18;;;;;;;52.03;27.88;;;-0.40;99.90;;;;;;5072225;28;20432;-79
2023/12/17 05:24:07;;;;;;;55.22;27.40;;;-0.30;99.90;;;;;;5093061;28;20417;-79
2023/12/17 05:26:54;;;;;;;49.75;26.17;;;-0.10;99.90;;;;;;5084474;28;20353;-78
2023/12/17 05:29:44;;;;;;;48.53;27.55;;;-0.20;99.90;;;;;;5092799;28;20044;-79
2023/12/17 05:32:36;;;;;;;49.65;25.92;;;-0.10;99.90;;;;;;5075572;28;20054;-79
2023/12/17 05:35:23;;;;;;;45.78;27.48;;;-0.10;99.90;;;;;;5091713;28;20047;-77
2023/12/17 05:38:10;;;;;;;46.45;26.13;;;-0.10;99.90;;;;;;5079693;28;20059;-79
2023/12/17 05:40:57;;;;;;;44.25;23.73;;;-0.10;99.90;;;;;;5080458;28;20462;-81
2023/12/17 05:43:44;;;;;;;47.53;25.23;;;-0.10;99.90;;;;;;5085797;28;20040;-78
2023/12/17 05:46:31;;;;;;;43.88;24.33;;;-0.10;99.90;;;;;;5086569;28;20364;-79
2023/12/17 05:49:19;;;;;;;40.58;24.38;;;-0.20;99.90;;;;;;5090682;28;20048;-79
2023/12/17 05:52:08;;;;;;;44.85;24.98;;;-0.20;99.90;;;;;;5091438;28;20054;-80
2023/12/17 05:54:55;;;;;;;44.13;24.70;;;-0.20;99.90;;;;;;5073850;28;20048;-78
2023/12/17 05:57:44;;;;;;;50.00;23.65;;;-0.20;99.90;;;;;;5087378;28;20051;-80
2023/12/17 06:00:31;;;;;;;43.85;24.25;;;-0.10;99.90;;;;;;5092336;28;20068;-79
2023/12/17 06:03:18;;;;;;;39.40;23.60;;;-0.10;99.90;;;;;;5079110;28;20166;-80
2023/12/17 06:06:06;;;;;;;44.63;25.30;;;-0.10;99.90;;;;;;5066354;28;20401;-80
2023/12/17 06:08:56;;;;;;;44.35;23.52;;;-0.10;99.90;;;;;;5090086;28;20136;-79
2023/12/17 06:11:43;;;;;;;38.88;22.63;;;0.00;99.90;;;;;;5087316;28;20051;-79
2023/12/17 06:14:33;;;;;;;44.45;23.27;;;0.00;99.90;;;;;;5087328;28;20044;-79
2023/12/17 06:17:22;;;;;;;42.65;24.20;;;0.00;99.90;;;;;;5082960;28;20051;-79
2023/12/17 06:20:10;;;;;;;40.20;22.80;;;0.00;99.90;;;;;;5080458;28;20036;-80
2023/12/17 06:22:57;;;;;;;42.58;23.42;;;0.10;99.90;;;;;;5093871;28;20067;-79
2023/12/17 06:25:44;;;;;;;38.38;22.55;;;0.10;99.90;;;;;;5075914;28;20040;-79
2023/12/17 06:28:31;;;;;;;39.63;24.23;;;0.00;99.90;;;;;;5090742;28;20036;-80
2023/12/17 06:31:18;;;;;;;41.08;24.65;;;-0.10;99.90;;;;;;5067854;28;20040;-78
2023/12/17 06:34:06;;;;;;;39.95;23.15;;;-0.20;99.90;;;;;;5089669;28;20043;-79
2023/12/17 06:36:56;;;;;;;40.42;24.33;;;-0.30;99.90;;;;;;5075949;28;20456;-79
2023/12/17 06:39:43;;;;;;;42.15;23.63;;;-0.40;99.90;;;;;;5087099;28;20716;-79
2023/12/17 06:42:33;;;;;;;40.78;24.20;;;-0.30;99.90;;;;;;5090895;28;20051;-77
2023/12/17 06:45:20;;;;;;;43.60;24.48;;;-0.10;99.90;;;;;;5091998;28;20040;-80
2023/12/17 06:48:08;;;;;;;43.15;24.67;;;0.00;99.90;;;;;;5090579;28;20055;-79
2023/12/17 06:51:01;;;;;;;43.45;23.63;;;-0.10;99.90;;;;;;5086539;28;20055;-79
2023/12/17 06:53:49;;;;;;;39.42;23.42;;;0.00;99.90;;;;;;5091266;28;20522;-77
2023/12/17 06:56:39;;;;;;;38.88;23.13;;;0.10;99.90;;;;;;5088965;28;20101;-79
2023/12/17 06:59:26;;;;;;;38.92;22.20;;;0.00;99.90;;;;;;5090269;28;20036;-80
2023/12/17 07:02:13;;;;;;;44.60;25.00;;;0.00;99.90;;;;;;5082657;28;20052;-79
2023/12/17 07:05:01;;;;;;;43.45;23.55;;;-0.10;99.90;;;;;;5083165;28;20044;-79
2023/12/17 07:07:48;;;;;;;40.58;24.52;;;0.00;99.90;;;;;;5090305;28;20059;-78
2023/12/17 07:10:38;;;;;;;38.97;23.77;;;-0.10;99.90;;;;;;5091544;28;20087;-78
2023/12/17 07:13:25;;;;;;;43.08;24.00;;;-0.10;99.90;;;;;;5082439;28;20348;-77
2023/12/17 07:16:28;;;;;;;42.75;24.90;;;-0.30;99.90;;;;;;5083274;28;20526;-78
2023/12/17 07:19:15;;;;;;;38.85;24.17;;;-0.40;99.90;;;;;;5082606;28;20036;-78
2023/12/17 07:22:05;;;;;;;46.15;24.75;;;-0.40;99.90;;;;;;5086534;28;20067;-79
2023/12/17 07:24:52;;;;;;;48.80;24.92;;;-0.40;99.90;;;;;;5093507;28;20044;-79
2023/12/17 07:27:42;;;;;;;46.10;25.98;;;-0.50;99.90;;;;;;5088254;28;20046;-77
2023/12/17 07:30:30;;;;;;;50.83;30.10;;;-0.40;99.90;;;;;;5088237;28;20036;-78
2023/12/17 07:33:16;;;;;;;47.92;26.52;;;-0.30;99.90;;;;;;5101404;22;20043;-79
2023/12/17 07:36:03;;;;;;;41.22;24.17;;;-0.30;99.90;;;;;;5072944;28;20040;-80
2023/12/17 07:38:51;;;;;;;45.10;26.27;;;-0.30;99.90;;;;;;5081117;28;20040;-81
2023/12/17 07:41:38;;;;;;;45.25;24.08;;;-0.30;99.90;;;;;;5074410;28;20056;-78
2023/12/17 07:44:27;;;;;;;43.28;25.05;;;-0.20;99.90;;;;;;5091465;28;20324;-78
2023/12/17 07:47:16;;;;;;;44.13;24.65;;;-0.20;99.90;;;;;;5085333;28;20129;-78
2023/12/17 07:50:04;;;;;;;37.50;23.17;;;-0.10;99.90;;;;;;5087591;28;20051;-78
2023/12/17 07:52:52;;;;;;;45.40;24.08;;;-0.10;99.90;;;;;;5085260;28;20052;-78
2023/12/17 07:55:44;;;;;;;41.28;25.08;;;0.00;99.90;;;;;;5069647;28;20131;-78
2023/12/17 07:58:33;;;;;;;43.53;26.08;;;0.10;99.90;;;;;;5090643;28;20044;-80
2023/12/17 08:01:31;;;;;;;43.42;27.02;;;0.30;99.90;;;;;;5085000;28;20044;-79
2023/12/17 08:04:18;;;;;;;47.25;28.85;;;0.50;99.90;;;;;;5085635;28;20033;-77
2023/12/17 08:07:10;;;;;;;53.47;32.58;;;0.50;99.90;;;;;;5091896;28;20036;-77
2023/12/17 08:10:00;;;;;;;53.97;33.45;;;0.50;99.90;;;;;;5087705;28;20155;-78
2023/12/17 08:12:47;;;;;;;60.70;36.67;;;0.60;99.90;;;;;;5081877;28;20048;-78
2023/12/17 08:15:34;;;;;;;69.18;41.67;;;0.70;99.90;;;;;;5071228;28;20051;-80
2023/12/17 08:18:21;;;;;;;56.50;35.55;;;0.80;99.90;;;;;;5092567;28;20055;-81
2023/12/17 08:21:09;;;;;;;50.50;32.00;;;0.90;99.90;;;;;;5075098;28;20054;-77
2023/12/17 08:23:56;;;;;;;53.58;34.53;;;1.10;99.90;;;;;;5087252;28;20040;-78
2023/12/17 08:26:44;;;;;;;61.60;38.17;;;1.30;99.90;;;;;;5084828;28;20055;-78
2023/12/17 08:29:33;;;;;;;73.70;50.25;;;1.50;99.90;;;;;;5075267;28;20148;-79
2023/12/17 08:32:20;;;;;;;67.35;46.42;;;1.70;99.90;;;;;;5089843;28;20547;-79
2023/12/17 08:35:14;;;;;;;53.17;34.28;;;1.80;99.90;;;;;;5089325;28;20048;-79
2023/12/17 08:38:05;;;;;;;46.47;30.50;;;1.80;99.90;;;;;;5071142;28;20087;-76
2023/12/17 08:40:54;;;;;;;47.83;29.27;;;1.90;99.90;;;;;;5080931;28;20052;-79
2023/12/17 08:43:42;;;;;;;44.35;29.27;;;1.90;99.90;;;;;;5077936;28;20630;-79
2023/12/17 08:46:29;;;;;;;46.17;28.90;;;1.90;99.90;;;;;;5092823;28;20471;-78
2023/12/17 08:49:17;;;;;;;52.92;30.00;;;1.90;99.90;;;;;;5073092;28;20032;-79
2023/12/17 08:52:05;;;;;;;52.25;29.95;;;2.00;99.90;;;;;;5089202;28;20056;-77
2023/12/17 08:54:52;;;;;;;50.03;31.48;;;2.10;99.90;;;;;;5091654;28;20047;-79
2023/12/17 09:00:40;;;;;;;48.95;32.03;;;2.40;99.90;;;;;;5006685;28;20050;-80
2023/12/17 09:03:28;;;;;;;54.75;34.55;;;2.70;99.90;;;;;;5008596;28;20125;-78
2023/12/17 09:06:17;;;;;;;45.55;28.58;;;2.80;99.90;;;;;;4999013;28;20499;-79
2023/12/17 09:09:07;;;;;;;45.70;29.27;;;2.70;99.90;;;;;;5017681;28;20042;-80
2023/12/17 09:11:55;;;;;;;45.88;30.08;;;2.80;99.90;;;;;;5010476;28;20060;-79
2023/12/17 09:14:43;;;;;;;62.88;38.88;;;3.20;99.90;;;;;;5009363;28;20057;-79
2023/12/17 09:17:30;;;;;;;64.72;37.88;;;3.40;99.90;;;;;;5009941;28;20488;-78
2023/12/17 09:20:18;;;;;;;51.20;32.55;;;3.50;99.90;;;;;;5009254;28;20046;-79
2023/12/17 09:23:05;;;;;;;41.03;26.30;;;3.40;99.90;;;;;;5021663;28;20054;-78
2023/12/17 09:25:52;;;;;;;33.40;22.55;;;3.40;99.90;;;;;;5008203;28;20132;-79
2023/12/17 09:28:41;;;;;;;35.67;23.73;;;3.40;99.90;;;;;;5009593;28;20445;-79
2023/12/17 09:31:29;;;;;;;28.55;17.08;;;3.60;99.90;;;;;;5009098;28;20049;-79
2023/12/17 09:34:16;;;;;;;23.98;16.45;;;3.90;99.90;;;;;;5008607;28;20108;-79
2023/12/17 09:37:04;;;;;;;25.02;15.23;;;4.50;99.90;;;;;;5008066;28;20069;-78
2023/12/17 09:39:51;;;;;;;17.52;11.50;;;5.20;99.90;;;;;;5009730;28;20219;-78
2023/12/17 09:42:43;;;;;;;14.65;10.55;;;6.00;99.90;;;;;;5011875;28;20045;-78
2023/12/17 09:45:37;;;;;;;13.82;9.30;;;6.80;99.90;;;;;;5011002;28;20042;-80
2023/12/17 09:48:27;;;;;;;10.52;8.20;;;7.60;99.90;;;;;;5009640;28;20037;-78
2023/12/17 09:51:15;;;;;;;8.45;6.38;;;8.10;99.90;;;;;;5014675;28;20041;-80
2023/12/17 09:54:04;;;;;;;10.38;5.53;;;8.70;49.90;;;;;;5014547;28;20064;-79
2023/12/17 09:56:55;;;;;;;7.95;5.50;;;9.00;1.00;;;;;;5014498;28;20069;-80
2023/12/17 09:59:44;;;;;;;7.68;6.13;;;9.30;99.90;;;;;;5026853;28;20072;-79
2023/12/17 10:02:32;;;;;;;9.73;6.70;;;9.30;99.90;;;;;;5018448;28;20061;-80
2023/12/17 10:05:27;;;;;;;11.80;6.28;;;9.40;99.90;;;;;;5022561;28;20052;-78
2023/12/17 10:08:15;;;;;;;6.47;5.35;;;9.30;1.00;;;;;;5038592;28;20056;-80
2023/12/17 10:11:03;;;;;;;10.07;7.10;;;9.40;62.90;;;;;;5031186;28;20053;-80
2023/12/17 10:13:53;;;;;;;15.40;9.70;;;9.50;1.00;;;;;;5026606;28;20041;-79
2023/12/17 10:16:41;;;;;;;13.50;9.35;;;9.80;99.90;;;;;;5030735;28;20138;-79
2023/12/17 10:19:28;;;;;;;9.88;7.03;;;10.20;99.90;;;;;;5031909;28;20037;-81
2023/12/17 10:22:17;;;;;;;7.55;6.28;;;10.80;44.90;;;;;;5027465;28;20179;-79
2023/12/17 10:25:05;;;;;;;9.10;6.78;;;11.00;1.00;;;;;;5029815;28;20052;-80
2023/12/17 10:28:00;;;;;;;9.45;7.30;;;11.20;1.00;;;;;;5028388;28;20445;-79
2023/12/17 10:30:47;;;;;;;8.77;6.88;;;11.50;99.90;;;;;;5032895;28;20044;-81
2023/12/17 10:33:41;;;;;;;11.00;6.65;;;12.20;99.90;;;;;;5020620;28;20518;-79
2023/12/17 10:36:28;;;;;;;7.70;5.32;;;12.80;99.90;;;;;;5031257;28;20048;-81
2023/12/17 10:39:18;;;;;;;9.63;6.68;;;12.40;99.90;;;;;;5021013;28;20065;-81
2023/12/17 10:42:08;;;;;;;11.10;7.85;;;11.80;99.90;;;;;;5029356;28;20068;-81
2023/12/17 10:44:57;;;;;;;10.52;6.80;;;12.10;99.90;;;;;;5032399;28;20096;-83
2023/12/17 10:47:47;;;;;;;7.95;5.63;;;12.20;99.90;;;;;;5035954;28;20042;-81
2023/12/17 10:50:36;;;;;;;9.75;5.22;;;12.90;99.90;;;;;;5032490;28;20050;-80
2023/12/17 10:53:23;;;;;;;7.70;5.95;;;13.90;99.90;;;;;;5033077;28;20041;-82
2023/12/17 10:56:12;;;;;;;7.35;5.35;;;13.90;99.90;;;;;;5042376;28;20056;-80
2023/12/17 10:59:02;;;;;;;5.88;4.63;;;14.10;99.90;;;;;;5026420;28;20373;-80
2023/12/17 11:01:54;;;;;;;7.88;5.75;;;14.00;99.90;;;;;;5032266;28;20080;-81
2023/12/17 11:04:45;;;;;;;6.90;4.65;;;13.70;99.90;;;;;;5030111;28;20420;-82
2023/12/17 11:07:35;;;;;;;7.75;5.30;;;14.20;99.90;;;;;;5016882;28;20049;-80
2023/12/17 11:10:25;;;;;;;6.70;3.78;;;14.00;99.90;;;;;;5032122;28;20264;-81
2023/12/17 11:13:13;;;;;;;6.80;4.88;;;13.80;99.10;;;;;;5031721;28;20126;-79
2023/12/17 11:16:28;;;;;;;4.13;3.00;;;13.60;96.30;;;;;;5031317;28;20337;-81
2023/12/17 11:19:17;;;;;;;3.53;2.80;;;13.50;90.50;;;;;;5028440;28;20049;-81
2023/12/17 11:22:07;;;;;;;3.95;3.15;;;13.60;74.50;;;;;;5029473;28;20440;-81
2023/12/17 11:24:57;;;;;;;4.13;3.70;;;13.00;68.60;;;;;;5032158;28;20794;-78
2023/12/17 11:27:48;;;;;;;3.92;3.40;;;12.70;70.10;;;;;;5014199;28;20076;-81
2023/12/17 11:30:39;;;;;;;4.40;3.10;;;13.00;66.00;;;;;;5029270;28;20037;-80
2023/12/17 11:33:27;;;;;;;3.65;2.78;;;12.80;59.00;;;;;;5015504;28;20041;-81
2023/12/17 11:36:16;;;;;;;2.85;2.50;;;13.00;54.90;;;;;;5030817;28;20048;-81
2023/12/17 11:39:08;;;;;;;3.20;2.70;;;12.90;52.10;;;;;;5010502;28;20060;-79
2023/12/17 11:41:57;;;;;;;3.38;2.80;;;13.30;52.00;;;;;;5018744;28;20041;-86
2023/12/17 11:44:51;;;;;;;2.92;2.63;;;13.20;46.20;;;;;;5030502;28;20061;-87
2023/12/17 11:47:38;;;;;;;2.95;2.55;;;13.30;45.30;;;;;;5034983;28;20049;-85
2023/12/17 11:50:26;;;;;;;3.72;2.72;;;13.70;37.90;;;;;;5033871;28;20096;-87
2023/12/17 11:53:15;;;;;;;3.00;2.22;;;13.80;37.50;;;;;;5030661;28;20103;-86
2023/12/17 11:56:07;;;;;;;4.10;2.50;;;14.00;32.80;;;;;;5017910;28;20037;-86
2023/12/17 11:58:54;;;;;;;3.40;2.17;;;14.50;32.70;;;;;;5032277;28;20042;-87
2023/12/17 12:01:42;;;;;;;2.63;2.30;;;15.50;33.90;;;;;;5037455;28;20045;-84
2023/12/17 12:04:40;;;;;;;3.83;2.00;;;15.70;23.60;;;;;;5044413;28;20061;-86
2023/12/17 12:07:29;;;;;;;3.28;1.83;;;15.40;21.20;;;;;;5041551;28;20055;-83
2023/12/17 12:10:17;;;;;;;2.80;1.90;;;15.80;18.50;;;;;;5044247;28;20072;-85
2023/12/17 12:13:07;;;;;;;2.17;1.98;;;16.50;14.30;;;;;;5023490;28;20457;-86
2023/12/17 12:16:02;;;;;;;2.47;1.63;;;17.40;14.20;;;;;;5016533;28;20049;-87
2023/12/17 12:19:03;;;;;;;3.42;2.17;;;18.20;9.70;;;;;;5034444;28;20200;-85
2023/12/17 12:21:51;;;;;;;2.10;1.67;;;18.70;3.80;;;;;;5035064;28;20041;-80
2023/12/17 12:24:39;;;;;;;1.88;1.40;;;19.20;3.80;;;;;;5043483;28;20108;-86
2023/12/17 12:27:26;;;;;;;2.85;1.55;;;19.50;1.00;;;;;;5045716;28;20049;-88
2023/12/17 12:30:25;;;;;;;3.70;1.73;;;18.30;1.00;;;;;;5044681;28;20046;-86
2023/12/17 12:33:18;;;;;;;1.95;1.60;;;17.30;1.00;;;;;;5022689;28;20059;-86
2023/12/17 12:36:10;;;;;;;2.60;1.83;;;16.80;1.00;;;;;;5027693;28;20037;-85
2023/12/17 12:39:02;;;;;;;2.78;1.73;;;16.70;1.00;;;;;;5032238;28;20038;-86
2023/12/17 12:41:50;;;;;;;5.20;1.70;;;16.90;1.00;;;;;;5032571;28;20041;-87
2023/12/17 12:44:37;;;;;;;2.45;1.77;;;16.90;1.00;;;;;;5033444;28;20052;-87
2023/12/17 12:47:25;;;;;;;2.47;1.88;;;17.00;1.00;;;;;;5026400;28;20045;-86
2023/12/17 12:50:12;;;;;;;2.78;1.95;;;16.80;1.00;;;;;;5031424;28;20381;-86
2023/12/17 12:53:02;;;;;;;2.88;2.00;;;16.80;1.00;;;;;;5033011;28;20060;-86
2023/12/17 12:56:02;;;;;;;3.60;2.20;;;17.10;1.00;;;;;;5033873;28;20124;-88
2023/12/17 12:58:51;;;;;;;3.17;2.47;;;17.10;1.00;;;;;;5031772;28;20057;-85
2023/12/17 13:01:41;;;;;;;3.85;2.40;;;17.10;1.00;;;;;;5015852;28;20057;-88
2023/12/17 13:04:28;;;;;;;3.75;2.55;;;17.70;1.00;;;;;;5028814;28;20056;-87
2023/12/17 13:07:16;;;;;;;4.03;2.50;;;17.40;1.00;;;;;;5033672;28;20056;-87
2023/12/17 13:10:03;;;;;;;4.82;3.22;;;17.80;1.00;;;;;;5031729;28;20053;-87
2023/12/17 13:12:57;;;;;;;4.22;2.88;;;18.10;1.00;;;;;;5017767;28;20056;-86
2023/12/17 13:15:44;;;;;;;4.10;2.55;;;18.70;1.00;;;;;;5036858;28;20042;-84
2023/12/17 13:18:31;;;;;;;3.55;2.47;;;19.20;1.00;;;;;;5039549;28;20127;-85
2023/12/17 13:21:19;;;;;;;3.85;2.60;;;19.30;1.00;;;;;;5033493;28;20073;-86
2023/12/17 13:24:06;;;;;;;4.15;2.40;;;19.40;1.00;;;;;;5037784;28;20168;-85
2023/12/17 13:26:54;;;;;;;3.50;2.33;;;18.40;1.00;;;;;;5045161;28;20076;-86
2023/12/17 13:29:42;;;;;;;3.03;2.47;;;16.80;1.00;;;;;;5048112;28;20108;-85
2023/12/17 13:32:29;;;;;;;6.00;2.90;;;16.60;1.00;;;;;;5049377;28;20049;-87
2023/12/17 13:35:16;;;;;;;2.90;2.35;;;16.80;1.00;;;;;;5040350;28;20053;-87
2023/12/17 13:38:06;;;;;;;3.92;2.38;;;17.20;1.00;;;;;;5033627;28;20053;-86
2023/12/17 13:40:53;;;;;;;4.60;2.55;;;17.60;1.00;;;;;;5019553;28;20045;-86
2023/12/17 13:43:40;;;;;;;5.38;2.78;;;17.70;1.00;;;;;;5031582;28;20104;-87
2023/12/17 13:46:28;;;;;;;7.65;4.15;;;17.50;1.00;;;;;;5030285;28;20115;-88
2023/12/17 13:49:16;;;;;;;4.68;2.90;;;16.70;1.00;;;;;;5030907;28;20045;-88
2023/12/17 13:52:06;;;;;;;5.90;3.58;;;16.70;1.00;;;;;;5029121;28;20057;-82
2023/12/17 13:54:53;;;;;;;4.35;2.60;;;16.60;1.00;;;;;;5022065;28;20477;-87
2023/12/17 13:57:42;;;;;;;3.97;2.45;;;16.00;1.00;;;;;;5030303;28;20048;-85
2023/12/17 14:00:31;;;;;;;4.78;2.85;;;16.00;1.00;;;;;;5031832;28;20468;-80
2023/12/17 14:03:20;;;;;;;3.60;2.50;;;16.20;1.00;;;;;;5038689;28;20134;-85
2023/12/17 14:06:14;;;;;;;4.85;2.80;;;16.10;1.00;;;;;;5035289;28;20203;-85
2023/12/17 14:09:02;;;;;;;3.33;2.80;;;16.00;1.00;;;;;;5034992;28;20503;-85
2023/12/17 14:11:49;;;;;;;4.13;2.20;;;16.30;1.00;;;;;;5030657;28;20053;-86
2023/12/17 14:14:38;;;;;;;2.50;2.30;;;16.70;1.00;;;;;;5028401;28;20053;-86
2023/12/17 14:17:25;;;;;;;3.72;2.75;;;17.10;1.00;;;;;;5028498;28;20338;-87
2023/12/17 14:20:15;;;;;;;2.85;2.28;;;17.50;1.00;;;;;;5034539;28;20108;-86
2023/12/17 14:23:14;;;;;;;2.80;2.33;;;17.20;1.00;;;;;;5028634;28;20056;-88
2023/12/17 14:26:04;;;;;;;4.25;3.42;;;17.00;1.00;;;;;;5033435;28;20389;-87
2023/12/17 14:28:51;;;;;;;5.88;3.75;;;17.10;1.00;;;;;;5032533;28;20045;-88
2023/12/17 14:31:40;;;;;;;6.70;4.55;;;16.60;1.00;;;;;;5032693;28;20059;-86